Tiempo atmosférico en la estación meteorológica de Cañaveral, Cáceres (373 m.)



Fecha
DESCASC
Temp. máxima en grados centígrados (hora)
DESCASC
Temp. mínima en grados centígrados (hora)
DESCASC
Temp. media en grados centígrados
DESCASC
Racha de viento máxima en m/sg (hora)
DESCASC
Velocidad máxima media en intervalos de 10 minutos(hora)
DESCASC
Precipitaciones diarias en mm
DESCASC
Precipitaciones de 00:00 a 06:00 en mm
DESCASC
Precipitaciones de 06:00 a 12:00 en mm
DESCASC
Precipitaciones de 12:00 a 18:00 en mm
DESCASC
Precipitaciones de 18:00 a 24:00 en mm
DESCASC
18-02-2018 14.6 (17:00) 6.6 (08:00) 10.6 10.83 (04:40) 6.94 (04:50) 0 0 0 0 0
17-02-2018 15.8 (14:20) 3.9 (08:40) 9.9 9.72 (22:40) 6.94 (23:20) 0 0 0 0 0
16-02-2018 17.8 (16:40) 10.7 (09:00) 14.2 6.11 (20:40) 4.44 (20:40) 0 0 0 0 0
15-02-2018 14.2 (17:50) 9.4 (00:00) 11.8 6.11 (02:00) 3.89 (02:00) 0.6 0.2 0.2 0.2 0
14-02-2018 13 (14:50) 7.4 (00:00) 10.2 8.89 (13:50) 5.83 (13:40) 0.8 0.8 0 0 0
13-02-2018 10.4 (17:10) 0.5 (00:00) 5.4 9.44 (12:40) 6.67 (12:40) 0 0 0 0 0
12-02-2018 12.6 (14:50) 5 (00:00) 8.8 11.67 (15:50) 8.33 (04:50) 1.6 1.6 0 0 0
11-02-2018 16.9 (17:30) 4.6 (00:00) 10.7 11.67 (18:20) 7.5 (17:40) 0 0 0 0 0
10-02-2018 12.7 (16:50) 3.9 (00:00) 8.3 13.33 (12:40) 9.17 (12:40) 0 0 0 0 0
09-02-2018 10.9 (17:00) 1.8 (00:00) 6.3 9.72 (17:40) 6.11 (17:30) 0.2 0 0.2 0 0
08-02-2018 9.2 (17:00) 1.5 (00:00) 5.3 7.78 (03:30) 5.28 (03:30) 0 0 0 0 0
07-02-2018 9 (13:50) 1.4 (00:00) 5.2 13.89 (15:00) 9.44 (16:20) 0 0 0 0 0
06-02-2018 7.6 (13:40) 2.1 (00:00) 4.8 19.44 (17:00) 11.67 (17:30) 0 0 0 0 0
05-02-2018 8.9 (16:20) 3.6 (00:00) 6.2 18.06 (23:00) 11.67 (13:20) 0 0 0 0 0
04-02-2018 8.6 (13:30) 3.7 (00:00) 6.2 16.67 (14:10) 11.39 (15:40) 0 0 0 0 0
03-02-2018 11.9 (15:40) 1.5 (00:00) 6.7 11.67 (23:59) 7.5 (22:30) 0 0 0 0 0
02-02-2018 9.8 (16:00) 2.3 (00:00) 6.1 16.11 (13:10) 11.39 (12:30) 0 0 0 0 0
01-02-2018 13 (15:40) 2.9 (00:00) 8 16.39 (11:50) 12.5 (12:00) 0 0 0 0 0
31-01-2018 15.6 (16:30) 7.1 (00:00) 11.4 8.06 (12:30) 5.56 (12:30) 0 0 0 0 0
30-01-2018 14.5 (15:00) 7.3 (00:00) 10.9 13.06 (12:10) 8.89 (11:00) 0 0 0 0 0
29-01-2018 15.8 (15:50) 8.9 (00:00) 12.3 14.17 (09:10) 9.17 (11:20) 0 0 0 0 0
28-01-2018 14.1 (16:50) 4.2 (00:00) 9.2 15.56 (17:10) 10.56 (17:10) 0 0 0 0 0
27-01-2018 11.9 (15:40) 3.9 (00:00) 7.9 16.67 (11:30) 11.94 (11:30) 0 0 0 0 0
26-01-2018 11.2 (15:30) 5.2 (00:00) 8.2 14.72 (02:40) 10 (12:30) 0 0 0 0 0
25-01-2018 10.2 (17:00) 4.5 (00:00) 7.3 17.22 (18:10) 10.83 (18:10) 8.4 0 6.2 2.2 0
24-01-2018 12.7 (16:20) 1.8 (00:00) 7.2 3.61 (15:10) 1.94 (13:40) 0.2 0 0.2 0 0
23-01-2018 15.4 (16:10) 3.4 (00:00) 9.4 3.61 (02:10) 2.5 (02:00) 0 0 0 0 0
22-01-2018 17.2 (16:20) 4.8 (00:00) 11 6.39 (07:50) 5 (07:50) 0 0 0 0 0

Gráficas

Temp. máximas Temp. mínimas Temp. medias Precipitaciones Rachas de viento máximas Velocidades máximas media en intervalos de 10 minutos

Datos horarios

Fecha y hora oficial Temperatura (ºC) Velocidad del viento (km/h) Dirección del viento Racha (km/h) Dirección de racha Precipitación (mm) Presión (hPa) Tendencia (hPa) Humedad (%)
2018-02-20 23:00:00 11.4 19 Norte 34 Norte 0 -- -- 49
2018-02-20 22:00:00 11.8 24 Norte 40 Norte 0 -- -- 51
2018-02-20 21:00:00 12.2 27 Norte 42 Norte 0 -- -- 52
2018-02-20 20:00:00 12.8 27 Norte 42 Norte 0 -- -- 51
2018-02-20 19:00:00 14.5 21 Norte 41 Norte 0 -- -- 49
2018-02-20 18:00:00 15.9 28 Norte 43 Norte 0 -- -- 44
2018-02-20 17:00:00 17.1 24 Norte 42 Norte 0 -- -- 42
2018-02-20 16:00:00 17.5 23 Norte 37 Norte 0 -- -- 43
2018-02-20 15:00:00 17.1 20 Norte 30 Norte 0 -- -- 44
2018-02-20 14:00:00 16.7 14 Norte 28 Norte 0 -- -- 47
2018-02-20 13:00:00 15.5 19 Norte 33 Norte 0 -- -- 51
2018-02-20 12:00:00 13.7 20 Norte 34 Norte 0 -- -- 55
2018-02-20 11:00:00 12.3 24 Norte 44 Norte 0 -- -- 59
2018-02-20 10:00:00 10.7 30 Norte 46 Norte 0 -- -- 63
2018-02-20 09:00:00 10 30 Norte 41 Norte 0 -- -- 64
2018-02-20 08:00:00 9.8 27 Norte 43 Norte 0 -- -- 63
2018-02-20 07:00:00 9.9 25 Norte 38 Norte 0 -- -- 63
2018-02-20 06:00:00 10 27 Norte 38 Norte 0 -- -- 62
2018-02-20 05:00:00 10.2 24 Norte 33 Norte 0 -- -- 62
2018-02-20 04:00:00 10.7 26 Norte 39 Norte 0 -- -- 60
2018-02-20 03:00:00 11.2 23 Norte 32 Norte 0 -- -- 58
2018-02-20 02:00:00 11.2 19 Norte 30 Norte 0 -- -- 58
2018-02-20 01:00:00 11.5 18 Norte 27 Norte 0 -- -- 56
2018-02-20 00:00:00 11.8 9 Nordeste 31 Norte 0 -- -- 54
2018-02-19 23:00:00 12.1 18 Norte 29 Norte 0 -- -- 54
2018-02-19 22:00:00 11.7 21 Norte 33 Norte 0 -- -- 57
2018-02-19 21:00:00 12.1 22 Norte 34 Norte 0 -- -- 56
2018-02-19 20:00:00 12 14 Norte 22 Norte 0 -- -- 57
2018-02-19 19:00:00 13.3 11 Norte 29 Norte 0 -- -- 54
2018-02-19 18:00:00 15.7 10 Norte 14 Norte 0 -- -- 44
2018-02-19 17:00:00 16.2 5 Norte 20 Noroeste 0 -- -- 44
2018-02-19 16:00:00 16.3 11 Norte 18 Norte 0 -- -- 44
2018-02-19 15:00:00 15.9 9 Noroeste 21 Norte 0 -- -- 45
2018-02-19 14:00:00 15.2 11 Norte 21 Noroeste 0 -- -- 46
2018-02-19 13:00:00 14.6 8 Norte 19 Nordeste 0 -- -- 51
2018-02-19 12:00:00 13.7 11 Norte 26 Norte 0 -- -- 52
2018-02-19 11:00:00 11.4 19 Norte 28 Norte 0 -- -- 59
2018-02-19 10:00:00 10.3 18 Norte 30 Norte 0 -- -- 61
2018-02-19 09:00:00 10 18 Norte 27 Norte 0 -- -- 61
2018-02-19 08:00:00 9.7 15 Norte 27 Norte 0 -- -- 59
2018-02-19 07:00:00 10.2 19 Norte 28 Norte 0 -- -- 57
2018-02-19 06:00:00 10 12 Nordeste 26 Este 0 -- -- 57
2018-02-19 05:00:00 9.9 10 Nordeste 26 Norte 0 -- -- 58
2018-02-19 04:00:00 10.5 18 Norte 30 Norte 0 -- -- 56
2018-02-19 03:00:00 10.8 10 Norte 23 Norte 0 -- -- 56
2018-02-19 02:00:00 10.9 16 Norte 23 Norte 0 -- -- 55
2018-02-19 01:00:00 10.8 11 Norte 23 Norte 0 -- -- 51
2018-02-19 00:00:00 10.7 13 Norte 19 Norte 0 -- -- 43
2018-02-18 23:00:00 10.1 8 Nordeste 15 Nordeste 0 -- -- 43
2018-02-18 22:00:00 10.5 14 Norte 22 Norte 0 -- -- 51
2018-02-18 21:00:00 11.3 14 Nordeste 23 Norte 0 -- -- 54
2018-02-18 20:00:00 10.8 12 Norte 18 Norte 0 -- -- 56
2018-02-18 19:00:00 12.4 6 Norte 12 Norte 0 -- -- 46
2018-02-18 18:00:00 14.6 6 Norte 23 Este 0 -- -- 38
2018-02-18 17:00:00 14.6 12 Nordeste 23 Nordeste 0 -- -- 33
2018-02-18 16:00:00 13.8 13 Nordeste 26 Nordeste 0 -- -- 33
2018-02-18 15:00:00 12.8 15 Nordeste 30 Nordeste 0 -- -- 38
2018-02-18 14:00:00 13.2 20 Nordeste 32 Este 0 -- -- 35
2018-02-18 13:00:00 11.5 19 Nordeste 30 Nordeste 0 -- -- 43
2018-02-18 12:00:00 11.5 20 Nordeste 31 Nordeste 0 -- -- 44
2018-02-18 11:00:00 10.4 19 Nordeste 32 Nordeste 0 -- -- 48
2018-02-18 10:00:00 8.8 18 Nordeste 35 Nordeste 0 -- -- 59
2018-02-18 09:00:00 7.9 19 Nordeste 31 Nordeste 0 -- -- 57
2018-02-18 08:00:00 6.6 18 Norte 33 Norte 0 -- -- 65
2018-02-18 07:00:00 7.1 18 Nordeste 29 Norte 0 -- -- 66
2018-02-18 06:00:00 8.3 21 Nordeste 35 Nordeste 0 -- -- 63
2018-02-18 05:00:00 7.7 22 Norte 39 Norte 0 -- -- 64
2018-02-18 04:00:00 8.5 21 Norte 35 Norte 0 -- -- 64
2018-02-18 03:00:00 8.6 22 Norte 34 Norte 0 -- -- 65
2018-02-18 02:00:00 9.4 20 Norte 30 Norte 0 -- -- 63
2018-02-18 01:00:00 10.1 17 Norte 31 Norte 0 -- -- 62
2018-02-18 00:00:00 10.1 23 Norte 34 Norte 0 -- -- 65
2018-02-17 23:00:00 10.5 24 Norte 35 Norte 0 -- -- 65
2018-02-17 22:00:00 10.7 24 Norte 33 Norte 0 -- -- 67
2018-02-17 21:00:00 11.2 19 Norte 34 Norte 0 -- -- 66
2018-02-17 20:00:00 12.3 19 Norte 30 Norte 0 -- -- 61
2018-02-17 19:00:00 13.1 7 Norte 18 Norte 0 -- -- 59
2018-02-17 18:00:00 14.9 8 Norte 17 Norte 0 -- -- 55
2018-02-17 17:00:00 15 12 Norte 18 Norte 0 -- -- 58
2018-02-17 16:00:00 15.5 10 Norte 20 Norte 0 -- -- 56
2018-02-17 15:00:00 15.1 9 Norte 24 Norte 0 -- -- 58
2018-02-17 14:00:00 15.2 14 Norte 28 Norte 0 -- -- 59
2018-02-17 13:00:00 14.4 11 Norte 27 Norte 0 -- -- 66
2018-02-17 12:00:00 14 14 Norte 27 Norte 0 -- -- 67
2018-02-17 11:00:00 10 4 Sudoeste 8 Oeste 0 -- -- 87
2018-02-17 10:00:00 6.2 3 Oeste 6 Sudoeste 0 -- -- 96
2018-02-17 09:00:00 4.4 2 Sudeste 5 Este 0 -- -- 97
2018-02-17 08:00:00 4.3 2 Sudoeste 9 Nordeste 0 -- -- 95
2018-02-17 07:00:00 5.1 0 Calma 8 Sur 0 -- -- 94
2018-02-17 06:00:00 6.5 3 Oeste 10 Nordeste 0 -- -- 90
2018-02-17 05:00:00 7.5 2 Noroeste 8 Noroeste 0 -- -- 89
2018-02-17 04:00:00 8.6 4 Oeste 5 Norte 0 -- -- 84
2018-02-17 03:00:00 9.9 0 Calma 4 Oeste 0 -- -- 80
2018-02-17 02:00:00 8.9 0 Calma 13 Sudoeste 0 -- -- 86
2018-02-17 01:00:00 8.7 9 Sudoeste 18 Oeste 0 -- -- 85
2018-02-17 00:00:00 10.9 5 Norte 9 Nordeste 0 -- -- 74
2018-02-16 23:00:00 11.2 6 Nordeste 17 Norte 0 -- -- 75
2018-02-16 22:00:00 12.3 10 Norte 20 Norte 0 -- -- 71
2018-02-16 21:00:00 12.6 14 Norte 22 Norte 0 -- -- 71
2018-02-16 20:00:00 12.8 14 Norte 18 Norte 0 -- -- 71
2018-02-16 19:00:00 13.4 13 Norte 15 Norte 0 -- -- 71
2018-02-16 18:00:00 16 13 Norte 21 Noroeste 0 -- -- 62
2018-02-16 17:00:00 17.5 5 Norte 15 Oeste 0 -- -- 57
2018-02-16 16:00:00 17.7 12 Sudoeste 21 Sudoeste 0 -- -- 52
2018-02-16 15:00:00 17.2 9 Sudoeste 22 Oeste 0 -- -- 56
2018-02-16 14:00:00 15.3 4 Sudoeste 13 Este 0 -- -- 66
2018-02-16 13:00:00 15 7 Sudeste 19 Sudeste 0 -- -- 69
2018-02-16 12:00:00 13.3 8 Este 13 Este 0 -- -- 80
2018-02-16 11:00:00 12.2 4 Este 8 Este 0 -- -- 85
2018-02-16 10:00:00 10.8 6 Este 9 Este 0 -- -- 90
2018-02-16 09:00:00 10.7 4 Nordeste 8 Nordeste 0 -- -- 89
2018-02-16 08:00:00 11.3 4 Nordeste 10 Nordeste 0 -- -- 84
2018-02-16 07:00:00 11.5 4 Nordeste 8 Nordeste 0 -- -- 82
2018-02-16 06:00:00 11.9 3 Norte 6 Norte 0 -- -- 78
2018-02-16 05:00:00 12.1 5 Norte 7 Nordeste 0 -- -- 77
2018-02-16 04:00:00 12.2 3 Nordeste 8 Nordeste 0 -- -- 78
2018-02-16 03:00:00 12.2 4 Nordeste 6 Nordeste 0 -- -- 77
2018-02-16 02:00:00 12.2 0 Calma 4 Nordeste 0 -- -- 79
2018-02-16 01:00:00 12.4 0 Calma 6 Nordeste 0 -- -- 77
2018-02-16 00:00:00 12.7 4 Nordeste 8 Nordeste 0 -- -- 77
2018-02-15 23:00:00 12.4 3 Nordeste 6 Nordeste 0 -- -- 79
2018-02-15 22:00:00 12.9 3 Norte 10 Noroeste 0 -- -- 77
2018-02-15 21:00:00 12.7 7 Norte 10 Noroeste 0 -- -- 80
2018-02-15 20:00:00 12.8 5 Norte 9 Norte 0 -- -- 81
2018-02-15 19:00:00 13.3 5 Norte 9 Norte 0 -- -- 79
2018-02-15 18:00:00 14.1 0 Calma 9 Sudoeste 0 -- -- 73
2018-02-15 17:00:00 14 4 Sur 8 Sudoeste 0 -- -- 75
2018-02-15 16:00:00 13.8 4 Oeste 10 Oeste 0 -- -- 78
2018-02-15 15:00:00 13.7 6 Oeste 14 Oeste 0 -- -- 79
2018-02-15 14:00:00 13.3 2 Sudeste 6 Norte 0 -- -- 81
2018-02-15 13:00:00 12.7 0 Calma 6 Sudeste 0.2 -- -- 83
2018-02-15 12:00:00 11.8 3 Sudeste 7 Sudeste 0 -- -- 89
2018-02-15 11:00:00 10.6 2 Sur 5 Sur 0 -- -- 94
2018-02-15 10:00:00 9.9 3 Sudeste 5 Sur 0 -- -- 95
2018-02-15 09:00:00 9.7 2 Este 4 Norte 0 -- -- 95
2018-02-15 08:00:00 9.5 3 Nordeste 6 Nordeste 0 -- -- 95
2018-02-15 07:00:00 9.5 0 Calma 7 Sudoeste 0.2 -- -- 95
2018-02-15 06:00:00 9.6 4 Oeste 9 Sudoeste 0.2 -- -- 94
2018-02-15 05:00:00 9.9 6 Sudoeste 10 Sudoeste 0 -- -- 91
2018-02-15 04:00:00 9.9 4 Oeste 11 Sudoeste 0 -- -- 91
2018-02-15 03:00:00 10.4 6 Sudoeste 16 Oeste 0 -- -- 87
2018-02-15 02:00:00 10.8 14 Oeste 22 Oeste 0 -- -- 84
2018-02-15 01:00:00 10.9 10 Oeste 15 Oeste 0 -- -- 81
2018-02-15 00:00:00 11.1 5 Oeste 9 Oeste 0 -- -- 80
2018-02-14 23:00:00 11.3 6 Sudoeste 10 Sudoeste 0 -- -- 78
2018-02-14 22:00:00 11.4 2 Oeste 4 Noroeste 0 -- -- 78
2018-02-14 21:00:00 11.5 0 Calma 3 Nordeste 0 -- -- 76
2018-02-14 20:00:00 11.7 0 Calma 7 Oeste 0 -- -- 75
2018-02-14 19:00:00 11.8 7 Oeste 26 Oeste 0 -- -- 76
2018-02-14 18:00:00 12.6 17 Oeste 27 Sudoeste 0 -- -- 72
2018-02-14 17:00:00 12.5 6 Oeste 17 Oeste 0 -- -- 70
2018-02-14 16:00:00 12.5 11 Oeste 29 Oeste 0 -- -- 68
2018-02-14 15:00:00 13 20 Oeste 30 Oeste 0 -- -- 65
2018-02-14 14:00:00 12.2 20 Sudoeste 32 Oeste 0 -- -- 72
2018-02-14 13:00:00 11 15 Sudoeste 26 Oeste 0 -- -- 79
2018-02-14 12:00:00 10.1 14 Sudoeste 27 Sudoeste 0 -- -- 85
2018-02-14 11:00:00 8.6 6 Oeste 11 Oeste 0 -- -- 89
2018-02-14 10:00:00 8.2 5 Sudoeste 10 Sudoeste 0 -- -- 90
2018-02-14 09:00:00 7.6 0 Calma 6 Sudoeste 0 -- -- 90
2018-02-14 08:00:00 7.5 6 Sur 8 Sur 0 -- -- 90
2018-02-14 07:00:00 7.8 0 Calma 7 Sudoeste 0 -- -- 92
2018-02-14 06:00:00 7.9 4 Sudoeste 5 Sudoeste 0 -- -- 92
2018-02-14 05:00:00 7.8 3 Oeste 12 Sudoeste 0.2 -- -- 94
2018-02-14 04:00:00 7.9 5 Sudoeste 11 Oeste 0.4 -- -- 93
2018-02-14 03:00:00 8.3 4 Oeste 14 Oeste 0.2 -- -- 89
2018-02-14 02:00:00 8.6 5 Oeste 14 Sudoeste 0 -- -- 85
2018-02-14 01:00:00 9 8 Sudoeste 20 Oeste 0 -- -- 80
2018-02-14 00:00:00 9.2 15 Oeste 23 Sudoeste 0 -- -- 78
2018-02-13 23:00:00 9.4 12 Oeste 19 Oeste 0 -- -- 76
2018-02-13 22:00:00 9.5 13 Oeste 22 Oeste 0 -- -- 75
2018-02-13 21:00:00 9.6 9 Oeste 22 Sudoeste 0 -- -- 74
2018-02-13 20:00:00 9.8 16 Sudoeste 25 Sudoeste 0 -- -- 72
2018-02-13 19:00:00 10.1 15 Oeste 33 Oeste 0 -- -- 70
2018-02-13 18:00:00 10.3 18 Sudoeste 34 Oeste 0 -- -- 67
2018-02-13 17:00:00 10.3 18 Oeste 34 Oeste 0 -- -- 68
2018-02-13 16:00:00 9.6 18 Oeste 33 Sudoeste 0 -- -- 68
2018-02-13 15:00:00 9.7 22 Sudoeste 32 Sudoeste 0 -- -- 66
2018-02-13 14:00:00 9.7 20 Oeste 31 Oeste 0 -- -- 65
2018-02-13 13:00:00 10.3 19 Oeste 34 Sudoeste 0 -- -- 61
2018-02-13 12:00:00 7.9 20 Oeste 30 Oeste 0 -- -- 64
2018-02-13 11:00:00 6.6 10 Oeste 23 Sudoeste 0 -- -- 70
2018-02-13 10:00:00 3.8 9 Sudoeste 13 Sudoeste 0 -- -- 78
2018-02-13 09:00:00 1 0 Calma 5 Este 0 -- -- 84
2018-02-13 08:00:00 0.9 0 Calma 15 Oeste 0 -- -- 83
2018-02-13 07:00:00 2.3 17 Oeste 24 Sudoeste 0 -- -- 77
2018-02-13 06:00:00 2.4 15 Oeste 23 Oeste 0 -- -- 77
2018-02-13 05:00:00 2.4 3 Oeste 8 Oeste 0 -- -- 75
2018-02-13 04:00:00 3 3 Sudoeste 8 Sudoeste 0 -- -- 73
2018-02-13 03:00:00 3.9 5 Este 13 Sudoeste 0 -- -- 67
2018-02-13 02:00:00 3.9 6 Oeste 12 Oeste 0 -- -- 67
2018-02-13 01:00:00 5.3 4 Norte 8 Norte 0 -- -- 55
2018-02-13 00:00:00 5 0 Calma 8 Sudoeste 0 -- -- 57
2018-02-12 23:00:00 5.7 3 Este 14 Oeste 0 -- -- 55
2018-02-12 22:00:00 6.3 11 Oeste 17 Norte 0 -- -- 54
2018-02-12 21:00:00 6.5 10 Norte 16 Norte 0 -- -- 47
2018-02-12 20:00:00 6.7 13 Norte 14 Norte 0 -- -- 48
2018-02-12 19:00:00 8.9 10 Norte 18 Norte 0 -- -- 45
2018-02-12 18:00:00 11.7 11 Norte 30 Norte 0 -- -- 34
2018-02-12 17:00:00 12.2 19 Norte 32 Noroeste 0 -- -- 33
2018-02-12 16:00:00 12.3 24 Noroeste 42 Norte 0 -- -- 32
2018-02-12 15:00:00 12.3 23 Noroeste 39 Norte 0 -- -- 33
2018-02-12 14:00:00 11.8 20 Norte 40 Norte 0 -- -- 39
2018-02-12 13:00:00 11.1 23 Noroeste 40 Noroeste 0 -- -- 42
2018-02-12 12:00:00 9.6 26 Noroeste 40 Noroeste 0 -- -- 54
2018-02-12 11:00:00 8.6 24 Norte 37 Noroeste 0 -- -- 52
2018-02-12 10:00:00 7.4 22 Norte 33 Norte 0 -- -- 64
2018-02-12 09:00:00 6.1 23 Norte 39 Norte 0 -- -- 71
2018-02-12 08:00:00 7.6 24 Norte 32 Noroeste 0 -- -- 73
2018-02-12 07:00:00 8 23 Noroeste 38 Norte 0 -- -- 77
2018-02-12 06:00:00 8.4 26 Noroeste 38 Noroeste 0 -- -- 79
2018-02-12 05:00:00 8.7 29 Norte 42 Noroeste 1.2 -- -- 81
2018-02-12 04:00:00 10 13 Noroeste 27 Oeste 0.4 -- -- 93
2018-02-12 03:00:00 10.2 17 Oeste 35 Oeste 0 -- -- 91
2018-02-12 02:00:00 10.1 17 Oeste 33 Oeste 0 -- -- 87
2018-02-12 01:00:00 10.4 18 Oeste 29 Oeste 0 -- -- 82
2018-02-12 00:00:00 10.7 18 Oeste 25 Oeste 0 -- -- 81
2018-02-11 23:00:00 11.1 10 Sudoeste 27 Oeste 0 -- -- 78
2018-02-11 22:00:00 12 18 Oeste 32 Oeste 0 -- -- 71
2018-02-11 21:00:00 12.5 19 Oeste 33 Oeste 0 -- -- 70
2018-02-11 20:00:00 13.5 25 Oeste 39 Oeste 0 -- -- 70
2018-02-11 19:00:00 14.9 25 Oeste 42 Oeste 0 -- -- 63
2018-02-11 18:00:00 16.5 19 Oeste 38 Oeste 0 -- -- 61
2018-02-11 17:00:00 16.4 23 Oeste 33 Oeste 0 -- -- 65
2018-02-11 16:00:00 16.7 23 Oeste 36 Oeste 0 -- -- 62
2018-02-11 15:00:00 16.5 19 Oeste 27 Sudoeste 0 -- -- 61
2018-02-11 14:00:00 15.1 19 Oeste 27 Sudoeste 0 -- -- 64
2018-02-11 13:00:00 14 21 Sudoeste 27 Oeste 0 -- -- 65
2018-02-11 12:00:00 12.5 17 Oeste 22 Sudoeste 0 -- -- 67
2018-02-11 11:00:00 9.6 7 Sudoeste 11 Sudoeste 0 -- -- 72
2018-02-11 10:00:00 6.9 3 Sur 8 Sur 0 -- -- 78
2018-02-11 09:00:00 6 2 Noroeste 8 Sudoeste 0 -- -- 84
2018-02-11 08:00:00 4.7 3 Sudoeste 7 Sur 0 -- -- 84
2018-02-11 07:00:00 5.1 0 Calma 10 Nordeste 0 -- -- 80
2018-02-11 06:00:00 5.7 6 Sudoeste 19 Noroeste 0 -- -- 77
2018-02-11 05:00:00 6.3 6 Norte 21 Noroeste 0 -- -- 76
2018-02-11 04:00:00 7.9 12 Noroeste 24 Norte 0 -- -- 71
2018-02-11 03:00:00 7.3 11 Noroeste 28 Noroeste 0 -- -- 72
2018-02-11 02:00:00 7.6 21 Noroeste 32 Noroeste 0 -- -- 69
2018-02-11 01:00:00 7.6 18 Noroeste 32 Noroeste 0 -- -- 68
2018-02-11 00:00:00 8 24 Noroeste 40 Noroeste 0 -- -- 65
2018-02-10 23:00:00 7.3 5 Norte 14 Noroeste 0 -- -- 64
2018-02-10 22:00:00 7.9 7 Noroeste 17 Noroeste 0 -- -- 58
2018-02-10 21:00:00 7.9 2 Sudeste 27 Noroeste 0 -- -- 56
2018-02-10 20:00:00 9.3 13 Norte 29 Noroeste 0 -- -- 52
2018-02-10 19:00:00 10.4 23 Noroeste 35 Norte 0 -- -- 47
2018-02-10 18:00:00 12.1 15 Noroeste 30 Noroeste 0 -- -- 42
2018-02-10 17:00:00 12.5 14 Norte 29 Norte 0 -- -- 42
2018-02-10 16:00:00 12.3 15 Norte 27 Noroeste 0 -- -- 43
2018-02-10 15:00:00 11.9 18 Norte 31 Noroeste 0 -- -- 45
2018-02-10 14:00:00 11.4 16 Norte 41 Norte 0 -- -- 44
2018-02-10 13:00:00 10.2 32 Norte 48 Noroeste 0 -- -- 46
2018-02-10 12:00:00 9.8 24 Norte 41 Norte 0 -- -- 48
2018-02-10 11:00:00 7.5 21 Norte 38 Norte 0 -- -- 61
2018-02-10 10:00:00 6.3 18 Norte 32 Norte 0 -- -- 64
2018-02-10 09:00:00 4.6 5 Este 26 Norte 0 -- -- 72
2018-02-10 08:00:00 4.7 11 Norte 25 Norte 0 -- -- 72
2018-02-10 07:00:00 4.3 7 Norte 22 Norte 0 -- -- 74
2018-02-10 06:00:00 4.6 7 Nordeste 25 Norte 0 -- -- 74
2018-02-10 05:00:00 4.8 3 Sudeste 25 Norte 0 -- -- 73
2018-02-10 04:00:00 5.3 4 Oeste 29 Norte 0 -- -- 73
2018-02-10 03:00:00 5.8 21 Norte 33 Norte 0 -- -- 75
2018-02-10 02:00:00 7.4 23 Norte 34 Noroeste 0 -- -- 70
2018-02-10 01:00:00 7.2 22 Norte 38 Norte 0 -- -- 73
2018-02-10 00:00:00 8 14 Norte 23 Norte 0 -- -- 70
2018-02-09 23:00:00 8 16 Norte 23 Norte 0 -- -- 70
2018-02-09 22:00:00 8 13 Norte 20 Norte 0 -- -- 70
2018-02-09 21:00:00 8.1 12 Norte 26 Norte 0 -- -- 70
2018-02-09 20:00:00 8.3 13 Norte 26 Noroeste 0 -- -- 71
2018-02-09 19:00:00 9.6 14 Norte 23 Noroeste 0 -- -- 66
2018-02-09 18:00:00 10.7 15 Noroeste 35 Noroeste 0 -- -- 63
2018-02-09 17:00:00 10.9 12 Noroeste 34 Noroeste 0 -- -- 65
2018-02-09 16:00:00 9.7 14 Noroeste 28 Noroeste 0 -- -- 68
2018-02-09 15:00:00 9.9 11 Norte 22 Noroeste 0 -- -- 67
2018-02-09 14:00:00 8.9 14 Sudoeste 25 Sudoeste 0 -- -- 67
2018-02-09 13:00:00 6.9 12 Sudoeste 19 Sudoeste 0 -- -- 73
2018-02-09 12:00:00 5.2 10 Sudoeste 20 Sudoeste 0 -- -- 76
2018-02-09 11:00:00 4.8 10 Sudoeste 15 Sudoeste 0 -- -- 79
2018-02-09 10:00:00 2.8 3 Sudoeste 8 Oeste 0 -- -- 85
2018-02-09 09:00:00 1.9 2 Nordeste 4 Nordeste 0 -- -- 82
2018-02-09 08:00:00 2 0 Calma 4 Sur 0.2 -- -- 76
2018-02-09 07:00:00 2.5 3 Sur 8 Oeste 0 -- -- 68
2018-02-09 06:00:00 3.2 4 Nordeste 5 Nordeste 0 -- -- 56
2018-02-09 05:00:00 3.2 2 Sudoeste 9 Norte 0 -- -- 54
2018-02-09 04:00:00 3.9 4 Noroeste 10 Norte 0 -- -- 52
2018-02-09 03:00:00 3.9 7 Norte 13 Norte 0 -- -- 50
2018-02-09 02:00:00 3.4 5 Norte 17 Norte 0 -- -- 53
2018-02-09 01:00:00 3.2 13 Norte 24 Norte 0 -- -- 54
2018-02-09 00:00:00 3.2 12 Norte 21 Norte 0 -- -- 54
2018-02-08 23:00:00 3 13 Norte 18 Norte 0 -- -- 54
2018-02-08 22:00:00 3.7 11 Norte 17 Norte 0 -- -- 51
2018-02-08 21:00:00 4.2 13 Norte 24 Norte 0 -- -- 50
2018-02-08 20:00:00 4.4 10 Norte 15 Norte 0 -- -- 49
2018-02-08 19:00:00 6.4 6 Norte 14 Nordeste 0 -- -- 45
2018-02-08 18:00:00 8.7 10 Norte 21 Norte 0 -- -- 38
2018-02-08 17:00:00 9.2 12 Norte 22 Nordeste 0 -- -- 37
2018-02-08 16:00:00 8.9 10 Norte 22 Norte 0 -- -- 38
2018-02-08 15:00:00 8.5 8 Nordeste 19 Norte 0 -- -- 34
2018-02-08 14:00:00 8 9 Este 19 Noroeste 0 -- -- 39
2018-02-08 13:00:00 6.7 10 Norte 19 Norte 0 -- -- 45
2018-02-08 12:00:00 5.8 14 Norte 25 Noroeste 0 -- -- 45
2018-02-08 11:00:00 4.9 11 Norte 23 Norte 0 -- -- 50
2018-02-08 10:00:00 3.3 18 Norte 25 Norte 0 -- -- 52
2018-02-08 09:00:00 1.9 15 Norte 26 Norte 0 -- -- 57
2018-02-08 08:00:00 1.6 12 Norte 25 Norte 0 -- -- 57
2018-02-08 07:00:00 2 17 Norte 24 Norte 0 -- -- 57
2018-02-08 06:00:00 2 14 Norte 21 Norte 0 -- -- 57
2018-02-08 05:00:00 2.2 16 Norte 28 Norte 0 -- -- 58
2018-02-08 04:00:00 2.7 17 Norte 28 Norte 0 -- -- 55
2018-02-08 03:00:00 2.9 14 Norte 27 Norte -- -- -- 54
2018-02-08 02:00:00 3 14 Norte 26 Norte 0 -- -- 54
2018-02-08 01:00:00 3 7 Nordeste 25 Norte 0 -- -- 53
2018-02-08 00:00:00 3.6 14 Norte 27 Norte 0 -- -- 47
2018-02-07 23:00:00 3.4 14 Norte 26 Norte 0 -- -- 52
2018-02-07 22:00:00 4 17 Norte 29 Norte 0 -- -- 48
2018-02-07 21:00:00 5.2 14 Nordeste 35 Nordeste 0 -- -- 42
2018-02-07 20:00:00 6.1 21 Nordeste 48 Nordeste 0 -- -- 40
2018-02-07 19:00:00 6.3 19 Nordeste 38 Norte 0 -- -- 40
2018-02-07 18:00:00 7.5 23 Nordeste 45 Nordeste 0 -- -- 39
2018-02-07 17:00:00 8.3 29 Norte 50 Nordeste 0 -- -- 36
2018-02-07 16:00:00 8.2 26 Norte 43 Norte 0 -- -- 39
2018-02-07 15:00:00 8.8 29 Norte 50 Norte 0 -- -- 38
2018-02-07 14:00:00 8.9 22 Nordeste 40 Norte 0 -- -- 42
2018-02-07 13:00:00 8.3 22 Norte 40 Norte 0 -- -- 47
2018-02-07 12:00:00 6.5 24 Norte 42 Norte 0 -- -- 56
2018-02-07 11:00:00 4.9 28 Norte 42 Norte 0 -- -- 59
2018-02-07 10:00:00 3.3 19 Norte 33 Norte 0 -- -- 63
2018-02-07 09:00:00 1.9 24 Norte 35 Norte 0 -- -- 66
2018-02-07 08:00:00 1.5 20 Norte 31 Norte 0 -- -- 66
2018-02-07 07:00:00 1.8 21 Norte 34 Norte 0 -- -- 65
2018-02-07 06:00:00 2 22 Norte 32 Norte 0 -- -- 64
2018-02-07 05:00:00 2.1 21 Norte 31 Norte 0 -- -- 64
2018-02-07 04:00:00 2.5 22 Norte 32 Norte 0 -- -- 62
2018-02-07 03:00:00 2.7 6 Nordeste 27 Norte 0 -- -- 60
2018-02-07 02:00:00 3 18 Norte 31 Norte 0 -- -- 60
2018-02-07 01:00:00 2.8 17 Norte 32 Norte 0 -- -- 61
2018-02-07 00:00:00 3.4 23 Norte 32 Norte 0 -- -- 59
2018-02-06 23:00:00 3 22 Norte 30 Norte 0 -- -- 60
2018-02-06 22:00:00 3.1 14 Norte 22 Norte 0 -- -- 61
2018-02-06 21:00:00 3.8 15 Norte 30 Norte 0 -- -- 57
2018-02-06 20:00:00 4.2 19 Norte 32 Norte 0 -- -- 55
2018-02-06 19:00:00 5.1 19 Norte 58 Norte 0 -- -- 51
2018-02-06 18:00:00 6.6 32 Norte 64 Norte 0 -- -- 45
2018-02-06 17:00:00 7 41 Norte 70 Norte 0 -- -- 42
2018-02-06 16:00:00 7.3 34 Norte 58 Norte 0 -- -- 45
2018-02-06 15:00:00 7.5 35 Norte 60 Norte 0 -- -- 44
2018-02-06 14:00:00 7.5 31 Norte 55 Norte 0 -- -- 45
2018-02-06 13:00:00 7.2 36 Norte 61 Norte 0 -- -- 46
2018-02-06 12:00:00 6.1 36 Norte 51 Norte 0 -- -- 48
2018-02-06 11:00:00 5 32 Norte 53 Norte 0 -- -- 52
2018-02-06 10:00:00 3.5 37 Norte 58 Norte 0 -- -- 59
2018-02-06 09:00:00 2.4 33 Norte 54 Norte 0 -- -- 64
2018-02-06 08:00:00 2.2 34 Norte 52 Norte 0 -- -- 67
2018-02-06 07:00:00 2.6 29 Norte 58 Norte 0 -- -- 67
2018-02-06 06:00:00 2.8 31 Norte 50 Norte 0 -- -- 67
2018-02-06 05:00:00 3.1 27 Norte 47 Norte 0 -- -- 66
2018-02-06 04:00:00 3.5 26 Norte 55 Norte 0 -- -- 66
2018-02-06 03:00:00 3.7 27 Norte 47 Norte 0 -- -- 67
2018-02-06 02:00:00 3.3 26 Norte 48 Norte 0 -- -- 70
2018-02-06 01:00:00 3.7 35 Norte 61 Norte 0 -- -- 69
2018-02-06 00:00:00 4.1 38 Norte 63 Norte 0 -- -- 65
2018-02-05 23:00:00 4.2 39 Norte 65 Norte 0 -- -- 66
2018-02-05 22:00:00 3.8 25 Norte 47 Nordeste 0 -- -- 70
2018-02-05 21:00:00 4.7 28 Norte 53 Norte 0 -- -- 63
2018-02-05 20:00:00 6.3 30 Nordeste 50 Nordeste 0 -- -- 56
2018-02-05 19:00:00 6.2 18 Norte 47 Norte 0 -- -- 65
2018-02-05 18:00:00 7.6 26 Nordeste 48 Norte 0 -- -- 56
2018-02-05 17:00:00 8.2 27 Nordeste 50 Norte 0 -- -- 54
2018-02-05 16:00:00 7.8 26 Norte 60 Norte 0 -- -- 57
2018-02-05 15:00:00 8.2 35 Norte 54 Norte 0 -- -- 56
2018-02-05 14:00:00 7.4 33 Norte 63 Norte 0 -- -- 59
2018-02-05 13:00:00 7.6 37 Norte 56 Norte 0 -- -- 58
2018-02-05 12:00:00 7 23 Norte 42 Norte 0 -- -- 60
2018-02-05 11:00:00 5.7 29 Norte 49 Norte 0 -- -- 65
2018-02-05 10:00:00 5.2 28 Norte 46 Norte 0 -- -- 67
2018-02-05 09:00:00 4 21 Norte 49 Norte 0 -- -- 71
2018-02-05 08:00:00 4.2 29 Norte 43 Norte 0 -- -- 69
2018-02-05 07:00:00 3.6 13 Norte 40 Norte 0 -- -- 72
2018-02-05 06:00:00 4 24 Norte 48 Norte 0 -- -- 69
2018-02-05 05:00:00 4 25 Norte 40 Norte 0 -- -- 69
2018-02-05 04:00:00 4.2 24 Norte 39 Norte 0 -- -- 68
2018-02-05 03:00:00 4.4 26 Norte 39 Norte 0 -- -- 66
2018-02-05 02:00:00 4.3 20 Norte 43 Norte 0 -- -- 66
2018-02-05 01:00:00 4.7 23 Norte 37 Norte 0 -- -- 65
2018-02-05 00:00:00 5.1 25 Norte 35 Norte 0 -- -- 64
2018-02-04 23:00:00 5.4 17 Norte 28 Norte 0 -- -- 66
2018-02-04 22:00:00 5.7 16 Norte 27 Norte 0 -- -- 66
2018-02-04 21:00:00 5.4 15 Norte 27 Norte 0 -- -- 67
2018-02-04 20:00:00 5.8 15 Norte 35 Norte 0 -- -- 63
2018-02-04 19:00:00 6.4 22 Norte 40 Nordeste 0 -- -- 58
2018-02-04 18:00:00 6.7 26 Norte 51 Norte 0 -- -- 58
2018-02-04 17:00:00 7.3 40 Norte 59 Nordeste 0 -- -- 53
2018-02-04 16:00:00 8.5 36 Norte 60 Norte 0 -- -- 52
2018-02-04 15:00:00 8.5 33 Norte 60 Norte 0 -- -- 54
2018-02-04 14:00:00 8.3 39 Norte 54 Norte 0 -- -- 52
2018-02-04 13:00:00 8.3 29 Norte 50 Norte 0 -- -- 50
2018-02-04 12:00:00 7.6 27 Norte 49 Norte 0 -- -- 51
2018-02-04 11:00:00 6.1 26 Norte 40 Norte 0 -- -- 61
2018-02-04 10:00:00 4.5 12 Norte 40 Norte 0 -- -- 73
2018-02-04 09:00:00 3.7 18 Norte 33 Norte 0 -- -- 73
2018-02-04 08:00:00 4.5 19 Noroeste 42 Noroeste 0 -- -- 69
2018-02-04 07:00:00 4.7 28 Noroeste 45 Norte 0 -- -- 73
2018-02-04 06:00:00 5 27 Noroeste 45 Noroeste 0 -- -- 75
2018-02-04 05:00:00 5.9 26 Noroeste 41 Noroeste 0 -- -- 73
2018-02-04 04:00:00 6.8 27 Noroeste 51 Noroeste 0 -- -- 72
2018-02-04 03:00:00 7.2 23 Noroeste 39 Noroeste 0 -- -- 70
2018-02-04 02:00:00 7.7 24 Noroeste 40 Noroeste 0 -- -- 71
2018-02-04 01:00:00 8.1 17 Noroeste 33 Oeste 0 -- -- 77
2018-02-04 00:00:00 8.3 22 Oeste 42 Oeste 0 -- -- 84
2018-02-03 23:00:00 8.6 21 Oeste 39 Oeste 0 -- -- 82
2018-02-03 22:00:00 8.9 24 Oeste 33 Oeste 0 -- -- 76
2018-02-03 21:00:00 9.3 19 Oeste 30 Oeste 0 -- -- 73
2018-02-03 20:00:00 8.7 8 Sudoeste 12 Oeste 0 -- -- 63
2018-02-03 19:00:00 9 7 Oeste 21 Sudoeste 0 -- -- 59
2018-02-03 18:00:00 10.5 15 Oeste 28 Sudoeste 0 -- -- 54
2018-02-03 17:00:00 11.4 15 Oeste 24 Oeste 0 -- -- 53
2018-02-03 16:00:00 11.1 14 Oeste 34 Oeste 0 -- -- 53
2018-02-03 15:00:00 11 10 Noroeste 27 Norte 0 -- -- 53
2018-02-03 14:00:00 10.8 12 Noroeste 31 Noroeste 0 -- -- 51
2018-02-03 13:00:00 9.1 15 Noroeste 30 Noroeste 0 -- -- 50
2018-02-03 12:00:00 8.4 10 Norte 24 Noroeste 0 -- -- 46
2018-02-03 11:00:00 7 7 Oeste 14 Noroeste 0 -- -- 51
2018-02-03 10:00:00 4.6 5 Sudoeste 20 Norte 0 -- -- 64
2018-02-03 09:00:00 3.3 5 Norte 18 Norte 0 -- -- 62
2018-02-03 08:00:00 2.1 3 Sur 10 Este 0 -- -- 66
2018-02-03 07:00:00 2.3 7 Este 14 Noroeste 0 -- -- 65
2018-02-03 06:00:00 1.5 6 Este 12 Nordeste 0 -- -- 69
2018-02-03 05:00:00 2 8 Este 19 Norte 0 -- -- 68
2018-02-03 04:00:00 3.1 10 Nordeste 19 Norte 0 -- -- 64
2018-02-03 03:00:00 4.3 16 Norte 23 Norte 0 -- -- 59
2018-02-03 02:00:00 4.5 10 Noroeste 21 Noroeste 0 -- -- 60
2018-02-03 01:00:00 4.3 14 Norte 34 Norte 0 -- -- 60
2018-02-03 00:00:00 5.6 24 Norte 43 Noroeste 0 -- -- 55
2018-02-02 23:00:00 6.6 5 Noroeste 26 Norte 0 -- -- 51
2018-02-02 22:00:00 6.9 8 Noroeste 21 Norte 0 -- -- 48
2018-02-02 21:00:00 5.1 3 Nordeste 17 Norte 0 -- -- 56
2018-02-02 20:00:00 6.9 5 Nordeste 22 Norte 0 -- -- 48
2018-02-02 19:00:00 7.1 11 Norte 28 Norte 0 -- -- 47
2018-02-02 18:00:00 9.1 19 Norte 41 Norte 0 -- -- 42
2018-02-02 17:00:00 9.6 24 Norte 36 Nordeste 0 -- -- 42
2018-02-02 16:00:00 9.8 23 Norte 45 Nordeste 0 -- -- 40
2018-02-02 15:00:00 9.4 27 Norte 51 Norte 0 -- -- 43
2018-02-02 14:00:00 8.7 35 Norte 58 Norte 0 -- -- 47
2018-02-02 13:00:00 8.1 36 Norte 58 Norte 0 -- -- 48
2018-02-02 12:00:00 7.4 33 Norte 57 Norte 0 -- -- 52
2018-02-02 11:00:00 5.5 33 Norte 50 Norte 0 -- -- 60
2018-02-02 10:00:00 4.3 28 Norte 40 Norte 0 -- -- 63
2018-02-02 09:00:00 2.6 19 Norte 31 Norte 0 -- -- 70
2018-02-02 08:00:00 2.5 16 Norte 29 Norte 0 -- -- 71
2018-02-02 07:00:00 2.9 20 Norte 33 Norte 0 -- -- 70
2018-02-02 06:00:00 2.3 12 Norte 25 Norte 0 -- -- 73
2018-02-02 05:00:00 3.1 15 Norte 27 Norte 0 -- -- 69
2018-02-02 04:00:00 3.2 18 Norte 27 Norte 0 -- -- 69
2018-02-02 03:00:00 2.9 10 Norte 20 Norte 0 -- -- 71
2018-02-02 02:00:00 3.3 9 Norte 35 Norte 0 -- -- 71
2018-02-02 01:00:00 4.2 23 Norte 42 Norte 0 -- -- 66
2018-02-02 00:00:00 5.4 33 Norte 51 Norte 0 -- -- 61
2018-02-01 23:00:00 6.1 30 Norte 49 Noroeste 0 -- -- 60
2018-02-01 22:00:00 6.8 30 Norte 46 Noroeste 0 -- -- 59
2018-02-01 21:00:00 6.9 19 Norte 38 Norte 0 -- -- 62
2018-02-01 20:00:00 8.3 12 Noroeste 44 Noroeste 0 -- -- 55
2018-02-01 19:00:00 9.3 11 Noroeste 42 Noroeste 0 -- -- 48
2018-02-01 18:00:00 11 17 Noroeste 53 Noroeste 0 -- -- 43
2018-02-01 17:00:00 11.6 34 Norte 56 Norte 0 -- -- 41
2018-02-01 16:00:00 12.8 21 Norte 41 Norte 0 -- -- 45
2018-02-01 15:00:00 12.9 23 Norte 46 Noroeste 0 -- -- 51
2018-02-01 14:00:00 12.4 26 Noroeste 45 Norte 0 -- -- 55
2018-02-01 13:00:00 11.8 30 Norte 53 Noroeste 0 -- -- 61
2018-02-01 12:00:00 10.9 45 Norte 59 Noroeste 0 -- -- 65
2018-02-01 11:00:00 8.8 25 Noroeste 41 Noroeste 0 -- -- 74
2018-02-01 10:00:00 5.5 5 Oeste 22 Noroeste 0 -- -- 83
2018-02-01 09:00:00 3.8 6 Sudoeste 17 Noroeste 0 -- -- 91
2018-02-01 08:00:00 3.1 4 Sudoeste 9 Sudoeste 0 -- -- 95
2018-02-01 07:00:00 3.8 4 Sudoeste 6 Sudoeste 0 -- -- 92
2018-02-01 06:00:00 4.4 0 Calma 4 Oeste 0 -- -- 92
2018-02-01 05:00:00 4.2 3 Oeste 8 Noroeste 0 -- -- 93
2018-02-01 04:00:00 4.1 4 Sudeste 9 Sudeste 0 -- -- 91
2018-02-01 03:00:00 4.8 0 Calma 8 Sudoeste 0 -- -- 89
2018-02-01 02:00:00 5.7 5 Sudeste 12 Sudeste 0 -- -- 80
2018-02-01 01:00:00 6.9 2 Sudoeste 12 Noroeste 0 -- -- 73
2018-02-01 00:00:00 8.5 9 Noroeste 12 Norte 0 -- -- 69
2018-01-31 23:00:00 8.7 3 Norte 8 Este 0 -- -- 68
2018-01-31 22:00:00 8.6 2 Nordeste 5 Nordeste 0 -- -- 67
2018-01-31 21:00:00 8.4 0 Calma 10 Norte 0 -- -- 69
2018-01-31 20:00:00 9.5 8 Nordeste 10 Nordeste 0 -- -- 68
2018-01-31 19:00:00 11.3 4 Este 14 Noroeste 0 -- -- 62
2018-01-31 18:00:00 14.4 4 Norte 10 Norte 0 -- -- 55
2018-01-31 17:00:00 15.3 9 Norte 15 Norte 0 -- -- 49
2018-01-31 16:00:00 15.2 5 Nordeste 17 Este 0 -- -- 52
2018-01-31 15:00:00 14.4 8 Este 21 Este 0 -- -- 58
2018-01-31 14:00:00 13.6 12 Este 23 Este 0 -- -- 59
2018-01-31 13:00:00 12 18 Este 29 Este 0 -- -- 63
2018-01-31 12:00:00 11.7 17 Este 26 Este 0 -- -- 63
2018-01-31 11:00:00 10.8 10 Este 18 Este 0 -- -- 67
2018-01-31 10:00:00 8.6 4 Este 17 Nordeste 0 -- -- 73
2018-01-31 09:00:00 7.7 14 Nordeste 19 Nordeste 0 -- -- 74
2018-01-31 08:00:00 7.1 8 Nordeste 26 Nordeste 0 -- -- 75
2018-01-31 07:00:00 7.3 14 Nordeste 26 Nordeste 0 -- -- 73
2018-01-31 06:00:00 7.4 9 Nordeste 17 Nordeste 0 -- -- 75
2018-01-31 05:00:00 8.8 11 Nordeste 23 Nordeste 0 -- -- 69
2018-01-31 04:00:00 9.5 12 Nordeste 22 Nordeste 0 -- -- 63
2018-01-31 03:00:00 9.3 9 Nordeste 18 Nordeste 0 -- -- 58
2018-01-31 02:00:00 9.5 5 Nordeste 22 Nordeste 0 -- -- 58
2018-01-31 01:00:00 9.8 15 Nordeste 22 Nordeste 0 -- -- 58
2018-01-31 00:00:00 9.8 17 Nordeste 28 Nordeste 0 -- -- 58
2018-01-30 23:00:00 10.5 20 Nordeste 30 Nordeste 0 -- -- 55
2018-01-30 22:00:00 11 18 Nordeste 27 Nordeste 0 -- -- 52
2018-01-30 21:00:00 10.9 16 Nordeste 23 Nordeste 0 -- -- 53
2018-01-30 20:00:00 10.7 15 Este 24 Este 0 -- -- 60
2018-01-30 19:00:00 11.6 13 Nordeste 28 Este 0 -- -- 61
2018-01-30 18:00:00 13.6 13 Este 30 Este 0 -- -- 53
2018-01-30 17:00:00 14.4 20 Este 38 Este 0 -- -- 50
2018-01-30 16:00:00 14.5 28 Este 45 Este 0 -- -- 48
2018-01-30 15:00:00 14.5 20 Este 36 Este 0 -- -- 54
2018-01-30 14:00:00 13.5 25 Este 40 Este 0 -- -- 55
2018-01-30 13:00:00 12.9 16 Este 47 Este 0 -- -- 58
2018-01-30 12:00:00 11.3 31 Este 47 Este 0 -- -- 63
2018-01-30 11:00:00 10 32 Este 46 Este 0 -- -- 68
2018-01-30 10:00:00 8.5 16 Nordeste 28 Nordeste 0 -- -- 72
2018-01-30 09:00:00 7.6 14 Nordeste 30 Nordeste 0 -- -- 75
2018-01-30 08:00:00 7.6 22 Nordeste 37 Este 0 -- -- 75
2018-01-30 07:00:00 8.3 24 Este 39 Nordeste 0 -- -- 72
2018-01-30 06:00:00 7.9 22 Nordeste 36 Nordeste 0 -- -- 75
2018-01-30 05:00:00 8.3 20 Nordeste 31 Este 0 -- -- 74
2018-01-30 04:00:00 9.7 17 Nordeste 33 Nordeste 0 -- -- 66
2018-01-30 03:00:00 9.5 15 Nordeste 30 Nordeste 0 -- -- 68
2018-01-30 02:00:00 9.9 18 Nordeste 31 Este 0 -- -- 68
2018-01-30 01:00:00 10.3 21 Nordeste 32 Este 0 -- -- 67
2018-01-30 00:00:00 10.5 22 Nordeste 31 Nordeste 0 -- -- 64
2018-01-29 23:00:00 11.3 20 Este 29 Este 0 -- -- 61
2018-01-29 22:00:00 11.4 21 Este 31 Nordeste 0 -- -- 62
2018-01-29 21:00:00 11.8 22 Este 34 Este 0 -- -- 63
2018-01-29 20:00:00 12.1 21 Nordeste 33 Este 0 -- -- 60
2018-01-29 19:00:00 12.6 17 Este 32 Nordeste 0 -- -- 59
2018-01-29 18:00:00 14.3 22 Este 43 Este 0 -- -- 53
2018-01-29 17:00:00 15.4 27 Este 40 Este 0 -- -- 49
2018-01-29 16:00:00 15.8 23 Este 39 Este 0 -- -- 51
2018-01-29 15:00:00 15.4 19 Este 42 Este 0 -- -- 53
2018-01-29 14:00:00 14.4 31 Este 49 Este 0 -- -- 58
2018-01-29 13:00:00 13.7 27 Este 47 Este 0 -- -- 60
2018-01-29 12:00:00 12.5 26 Este 50 Este 0 -- -- 62
2018-01-29 11:00:00 11.1 27 Este 49 Este 0 -- -- 66
2018-01-29 10:00:00 10 27 Este 51 Este 0 -- -- 69
2018-01-29 09:00:00 9 29 Este 46 Este 0 -- -- 72
2018-01-29 08:00:00 9.3 30 Este 49 Este 0 -- -- 71
2018-01-29 07:00:00 9.4 29 Este 43 Este 0 -- -- 71
2018-01-29 06:00:00 9 19 Este 44 Este 0 -- -- 74
2018-01-29 05:00:00 9.6 25 Este 50 Este 0 -- -- 72
2018-01-29 04:00:00 9.5 29 Este 45 Este 0 -- -- 72
2018-01-29 03:00:00 10.1 26 Este 42 Nordeste 0 -- -- 70
2018-01-29 02:00:00 9.9 18 Nordeste 31 Nordeste 0 -- -- 72
2018-01-29 01:00:00 9.5 22 Nordeste 42 Este 0 -- -- 76
2018-01-29 00:00:00 9.7 23 Este 42 Este 0 -- -- 75
2018-01-28 23:00:00 9.9 22 Nordeste 36 Este 0 -- -- 74
2018-01-28 22:00:00 10.2 19 Nordeste 33 Nordeste 0 -- -- 73
2018-01-28 21:00:00 10.7 19 Este 34 Este 0 -- -- 69
2018-01-28 20:00:00 11.3 21 Nordeste 39 Este 0 -- -- 66
2018-01-28 19:00:00 12.3 24 Este 49 Este 0 -- -- 59
2018-01-28 18:00:00 13.3 29 Este 56 Este 0 -- -- 55
2018-01-28 17:00:00 14 31 Este 53 Este 0 -- -- 52
2018-01-28 16:00:00 13.3 32 Este 51 Este 0 -- -- 55
2018-01-28 15:00:00 13.4 30 Este 50 Nordeste 0 -- -- 52
2018-01-28 14:00:00 13.2 24 Nordeste 44 Este 0 -- -- 48
2018-01-28 13:00:00 12.5 20 Nordeste 32 Nordeste 0 -- -- 47
2018-01-28 12:00:00 10.5 14 Este 22 Este 0 -- -- 49
2018-01-28 11:00:00 8.9 10 Nordeste 27 Norte 0 -- -- 49
2018-01-28 10:00:00 7.1 14 Nordeste 27 Norte 0 -- -- 53
2018-01-28 09:00:00 4.8 16 Norte 30 Nordeste 0 -- -- 62
2018-01-28 08:00:00 4.3 10 Nordeste 38 Norte 0 -- -- 65
2018-01-28 07:00:00 4.5 25 Norte 36 Norte 0 -- -- 64
2018-01-28 06:00:00 4.3 12 Nordeste 28 Norte 0 -- -- 65
2018-01-28 05:00:00 4.5 17 Norte 25 Norte 0 -- -- 65
2018-01-28 04:00:00 4.8 17 Norte 28 Norte 0 -- -- 65
2018-01-28 03:00:00 5.4 12 Norte 30 Norte 0 -- -- 62
2018-01-28 02:00:00 6.4 15 Norte 23 Nordeste 0 -- -- 57
2018-01-28 01:00:00 6.8 13 Nordeste 28 Norte 0 -- -- 56
2018-01-28 00:00:00 7.2 18 Norte 33 Norte 0 -- -- 56
2018-01-27 23:00:00 7.2 19 Norte 33 Norte 0 -- -- 60
2018-01-27 22:00:00 8 19 Norte 35 Norte 0 -- -- 59
2018-01-27 21:00:00 8.7 22 Norte 46 Nordeste 0 -- -- 57
2018-01-27 20:00:00 8.9 31 Norte 48 Norte 0 -- -- 55
2018-01-27 19:00:00 9.5 23 Nordeste 50 Nordeste 0 -- -- 50
2018-01-27 18:00:00 10.7 36 Norte 55 Norte 0 -- -- 46
2018-01-27 17:00:00 11.6 31 Norte 59 Norte 0 -- -- 44
2018-01-27 16:00:00 11.9 23 Norte 44 Norte 0 -- -- 45
2018-01-27 15:00:00 11.4 31 Norte 49 Norte 0 -- -- 49
2018-01-27 14:00:00 11.1 27 Norte 54 Norte 0 -- -- 49
2018-01-27 13:00:00 10.2 40 Norte 58 Norte 0 -- -- 54
2018-01-27 12:00:00 9 38 Norte 60 Norte 0 -- -- 60
2018-01-27 11:00:00 7.1 34 Norte 50 Norte 0 -- -- 64
2018-01-27 10:00:00 5.4 8 Nordeste 22 Norte 0 -- -- 70
2018-01-27 09:00:00 4.1 9 Sudeste 21 Norte 0 -- -- 75
2018-01-27 08:00:00 4.5 8 Norte 28 Norte 0 -- -- 73
2018-01-27 07:00:00 4.7 20 Norte 30 Norte 0 -- -- 73
2018-01-27 06:00:00 4.7 18 Norte 33 Norte 0 -- -- 74
2018-01-27 05:00:00 4.8 19 Norte 33 Norte 0 -- -- 76
2018-01-27 04:00:00 4.6 18 Norte 26 Norte 0 -- -- 78
2018-01-27 03:00:00 5.1 6 Nordeste 33 Noroeste 0 -- -- 76
2018-01-27 02:00:00 5.7 27 Norte 39 Norte 0 -- -- 74
2018-01-27 01:00:00 5.9 18 Noroeste 31 Noroeste 0 -- -- 73
2018-01-27 00:00:00 6.4 19 Noroeste 43 Norte 0 -- -- 71
2018-01-26 23:00:00 7.3 28 Noroeste 44 Norte 0 -- -- 68
2018-01-26 22:00:00 7.6 27 Noroeste 42 Noroeste 0 -- -- 64
2018-01-26 21:00:00 8.1 27 Noroeste 40 Noroeste 0 -- -- 61
2018-01-26 20:00:00 8.7 30 Noroeste 41 Noroeste 0 -- -- 58
2018-01-26 19:00:00 9 22 Noroeste 31 Noroeste 0 -- -- 57
2018-01-26 18:00:00 10.2 16 Norte 39 Noroeste 0 -- -- 53
2018-01-26 17:00:00 10.9 27 Norte 41 Noroeste 0 -- -- 50
2018-01-26 16:00:00 11.1 28 Norte 42 Norte 0 -- -- 51
2018-01-26 15:00:00 11 18 Norte 42 Noroeste 0 -- -- 54
2018-01-26 14:00:00 10.3 30 Norte 51 Norte 0 -- -- 54
2018-01-26 13:00:00 9.4 35 Norte 50 Noroeste 0 -- -- 59
2018-01-26 12:00:00 8.5 27 Norte 40 Norte 0 -- -- 63
2018-01-26 11:00:00 7.2 21 Norte 33 Noroeste 0 -- -- 66
2018-01-26 10:00:00 6.1 24 Norte 45 Noroeste 0 -- -- 71
2018-01-26 09:00:00 5.5 31 Norte 42 Noroeste 0 -- -- 72
2018-01-26 08:00:00 5.2 17 Norte 35 Noroeste 0 -- -- 71
2018-01-26 07:00:00 5.6 20 Noroeste 34 Norte 0 -- -- 68
2018-01-26 06:00:00 5.6 25 Noroeste 40 Noroeste 0 -- -- 68
2018-01-26 05:00:00 5.4 21 Noroeste 46 Norte 0 -- -- 69
2018-01-26 04:00:00 5.7 30 Noroeste 48 Noroeste 0 -- -- 68
2018-01-26 03:00:00 5.5 25 Noroeste 53 Noroeste 0 -- -- 71
2018-01-26 02:00:00 5.8 30 Noroeste 42 Noroeste 0 -- -- 70
2018-01-26 01:00:00 6.3 30 Noroeste 45 Noroeste 0 -- -- 69
2018-01-26 00:00:00 6.6 26 Noroeste 55 Noroeste 0 -- -- 66
2018-01-25 23:00:00 6.9 32 Noroeste 51 Noroeste 0 -- -- 67
2018-01-25 22:00:00 7.1 25 Noroeste 45 Noroeste 0 -- -- 70
2018-01-25 21:00:00 7.4 23 Noroeste 40 Noroeste 0 -- -- 71
2018-01-25 20:00:00 7.6 21 Noroeste 41 Oeste 0 -- -- 72
2018-01-25 19:00:00 7.7 15 Noroeste 62 Oeste 0 -- -- 82
2018-01-25 18:00:00 9.4 21 Oeste 53 Oeste 0 -- -- 79
2018-01-25 17:00:00 10.2 17 Oeste 27 Oeste 0 -- -- 81
2018-01-25 16:00:00 9.3 15 Oeste 23 Oeste 0 -- -- 94
2018-01-25 15:00:00 8.1 0 Calma 10 Sudeste 0.6 -- -- 98
2018-01-25 14:00:00 7.4 3 Sur 6 Sudeste 0.6 -- -- 98
2018-01-25 13:00:00 6.9 3 Sur 6 Sur 1 -- -- 99
2018-01-25 12:00:00 6.2 2 Este 10 Este 1.2 -- -- 98
2018-01-25 11:00:00 5.6 6 Este 10 Este 1.2 -- -- 98
2018-01-25 10:00:00 5.2 2 Este 8 Nordeste 3.2 -- -- 99
2018-01-25 09:00:00 4.8 0 Calma 9 Sudoeste 0.6 -- -- 98
2018-01-25 08:00:00 4.5 4 Sur 10 Sur 0 -- -- 98
2018-01-25 07:00:00 5.2 8 Sur 12 Sur 0 -- -- 98
2018-01-25 06:00:00 6 8 Sur 10 Sur 0 -- -- 97
2018-01-25 05:00:00 6.4 0 Calma 4 Sur 0 -- -- 98
2018-01-25 04:00:00 6.3 0 Calma 4 Este 0 -- -- 98
2018-01-25 03:00:00 5.8 4 Este 7 Este 0 -- -- 97
2018-01-25 02:00:00 5.2 5 Este 6 Este 0 -- -- 96
2018-01-25 01:00:00 5.6 0 Calma 2 Este 0 -- -- 95
2018-01-25 00:00:00 6.8 0 Calma 5 Sur 0 -- -- 94
2018-01-24 23:00:00 7.6 3 Sudoeste 6 Oeste 0 -- -- 91
2018-01-24 22:00:00 8.1 2 Noroeste 5 Oeste 0 -- -- 93
2018-01-24 21:00:00 8.5 2 Sudoeste 4 Sudoeste 0 -- -- 89
2018-01-24 20:00:00 9.1 0 Calma 3 Norte 0 -- -- 83
2018-01-24 19:00:00 10.1 0 Calma 4 Oeste 0 -- -- 83
2018-01-24 18:00:00 12 3 Sudoeste 6 Oeste 0 -- -- 76
2018-01-24 17:00:00 12.4 3 Oeste 8 Oeste 0 -- -- 74
2018-01-24 16:00:00 12.6 4 Sur 13 Sudoeste 0 -- -- 77
2018-01-24 15:00:00 12.4 6 Sudoeste 11 Sudoeste 0 -- -- 78
2018-01-24 14:00:00 11.2 6 Sudoeste 12 Sur 0 -- -- 83
2018-01-24 13:00:00 10.8 5 Sur 10 Sudeste 0 -- -- 83
2018-01-24 12:00:00 8.4 4 Sur 7 Sur 0 -- -- 94
2018-01-24 11:00:00 6.1 2 Sudeste 4 Este 0 -- -- 99
2018-01-24 10:00:00 2.7 0 Calma 5 Nordeste 0 -- -- 98
2018-01-24 09:00:00 1.9 0 Calma 3 Noroeste 0 -- -- 97
2018-01-24 08:00:00 2.7 2 Sudeste 3 Este 0.2 -- -- 98
2018-01-24 07:00:00 2.8 0 Calma 5 Este 0 -- -- 97
2018-01-24 06:00:00 3.2 2 Este 3 Sudeste 0 -- -- 96
2018-01-24 05:00:00 3.7 0 Calma 3 Noroeste 0 -- -- 96
2018-01-24 04:00:00 4.8 2 Oeste 3 Noroeste 0 -- -- 95
2018-01-24 03:00:00 6.1 3 Oeste 3 Oeste 0 -- -- 94
2018-01-24 02:00:00 7.2 0 Calma 3 Oeste 0 -- -- 93
2018-01-24 01:00:00 7.2 0 Calma 5 Nordeste 0 -- -- 90
2018-01-24 00:00:00 7.8 0 Calma 5 Este 0 -- -- 88
2018-01-23 23:00:00 9 2 Sur 3 Sudoeste 0 -- -- 86
2018-01-23 22:00:00 9.4 2 Noroeste 6 Oeste 0 -- -- 87
2018-01-23 21:00:00 10.8 0 Calma 5 Nordeste 0 -- -- 79
2018-01-23 20:00:00 10.7 0 Calma 5 Este 0 -- -- 83
2018-01-23 19:00:00 11.9 0 Calma 9 Oeste 0 -- -- 78
2018-01-23 18:00:00 13.6 8 Oeste 13 Oeste 0 -- -- 72
2018-01-23 17:00:00 15 8 Oeste 12 Sudoeste 0 -- -- 68
2018-01-23 16:00:00 15.3 6 Sudoeste 10 Oeste 0 -- -- 68
2018-01-23 15:00:00 14 4 Sur 10 Oeste 0 -- -- 73
2018-01-23 14:00:00 12.3 6 Sudoeste 12 Oeste 0 -- -- 78
2018-01-23 13:00:00 10.4 7 Oeste 12 Oeste 0 -- -- 95
2018-01-23 12:00:00 8.1 0 Calma 7 Sudeste 0 -- -- 99
2018-01-23 11:00:00 6.5 3 Este 10 Nordeste 0 -- -- 99
2018-01-23 10:00:00 4.7 3 Este 5 Este 0 -- -- 99
2018-01-23 09:00:00 3.7 0 Calma 5 Nordeste 0 -- -- 98
2018-01-23 08:00:00 3.6 0 Calma 4 Nordeste 0 -- -- 98
2018-01-23 07:00:00 3.5 3 Nordeste 10 Este 0 -- -- 97
2018-01-23 06:00:00 3.9 6 Nordeste 12 Este 0 -- -- 97
2018-01-23 05:00:00 4.2 5 Este 10 Este 0 -- -- 98
2018-01-23 04:00:00 4.2 4 Este 9 Este 0 -- -- 97
2018-01-23 03:00:00 4.6 3 Este 13 Este 0 -- -- 97
2018-01-23 02:00:00 4.4 9 Nordeste 13 Este 0 -- -- 96
2018-01-23 01:00:00 5.2 5 Este 13 Nordeste 0 -- -- 95
2018-01-23 00:00:00 6.2 8 Nordeste 13 Nordeste 0 -- -- 91
2018-01-22 23:00:00 9.6 4 Sudeste 21 Este 0 -- -- 82
2018-01-22 22:00:00 11 12 Sudeste 18 Este 0 -- -- 72
2018-01-22 21:00:00 11.7 0 Calma 17 Norte 0 -- -- 72
2018-01-22 20:00:00 13.5 4 Nordeste 8 Norte 0 -- -- 66
2018-01-22 19:00:00 13.6 7 Oeste 18 Oeste 0 -- -- 71
2018-01-22 18:00:00 16 11 Sudoeste 22 Oeste 0 -- -- 64
2018-01-22 17:00:00 16.8 13 Sudoeste 21 Oeste 0 -- -- 61
2018-01-22 16:00:00 17.1 10 Oeste 20 Sudoeste 0 -- -- 59
2018-01-22 15:00:00 16.3 5 Norte 14 Norte 0 -- -- 57
2018-01-22 14:00:00 15.1 6 Sur 12 Sur 0 -- -- 66
2018-01-22 13:00:00 13.1 5 Sur 9 Oeste 0 -- -- 77
2018-01-22 12:00:00 9.5 6 Sudoeste 9 Sudoeste 0 -- -- 85
2018-01-22 11:00:00 6.9 4 Sudoeste 9 Oeste 0 -- -- 91
2018-01-22 10:00:00 5.2 2 Oeste 19 Noroeste 0 -- -- 91
2018-01-22 09:00:00 5.3 7 Oeste 18 Norte 0 -- -- 89
2018-01-22 08:00:00 8.6 17 Norte 23 Norte 0 -- -- 84
2018-01-22 07:00:00 5.5 4 Norte 14 Norte 0 -- -- 92
2018-01-22 06:00:00 4.8 0 Calma 14 Oeste 0 -- -- 93
2018-01-22 05:00:00 6.7 6 Noroeste 14 Noroeste 0 -- -- 92
2018-01-22 04:00:00 8.4 4 Oeste 15 Norte 0 -- -- 85
2018-01-22 03:00:00 9.8 9 Noroeste 22 Norte 0 -- -- 77
2018-01-22 02:00:00 10.4 13 Norte 22 Norte 0 -- -- 75
2018-01-22 01:00:00 10.2 6 Noroeste 19 Noroeste 0 -- -- 75
2018-01-22 00:00:00 10.2 6 Noroeste 31 Norte 0 -- -- 76